Time;durP1;ratioP1;P1;durP2;ratioP2;P2;SDS_P1;SDS_P2;PMS_P1;PMS_P2;Temp;Humidity;BMP_temperature;BMP_pressure;BME280_temperature;BME280_humidity;BME280_pressure;Samples;Min_cycle;Max_cycle;Signal;HPM_P1;HPM_P2
2021/08/14 00:01:36;;;;;;;9.20;5.05;;;640.30;1510.40;;;;;;4833739;29;20026;-75
2021/08/14 00:04:02;;;;;;;9.57;6.30;;;640.30;1510.40;;;;;;4813963;29;20045;-77
2021/08/14 00:06:29;;;;;;;12.73;5.95;;;640.20;1536.00;;;;;;4832956;29;20026;-72
2021/08/14 00:08:58;;;;;;;10.68;6.22;;;640.10;1536.00;;;;;;4834276;29;20039;-73
2021/08/14 00:11:24;;;;;;;13.60;5.97;;;640.10;1536.00;;;;;;4833715;29;20036;-77
2021/08/14 00:13:52;;;;;;;7.65;5.95;;;640.10;1536.00;;;;;;4833524;29;20026;-74
2021/08/14 00:16:19;;;;;;;8.52;5.53;;;640.10;1536.00;;;;;;4834238;29;20025;-76
2021/08/14 00:18:47;;;;;;;9.15;5.18;;;640.10;1536.00;;;;;;4834927;29;20068;-76
2021/08/14 00:21:18;;;;;;;10.20;5.85;;;640.10;1561.60;;;;;;4833661;29;20097;-75
2021/08/14 00:23:44;;;;;;;12.13;6.63;;;640.10;1561.60;;;;;;4816804;29;20042;-72
2021/08/14 00:26:10;;;;;;;10.48;6.60;;;640.00;1561.60;;;;;;4816804;29;20102;-77
2021/08/14 00:28:40;;;;;;;17.10;7.10;;;640.00;1561.60;;;;;;4833939;29;20026;-77
2021/08/14 00:31:08;;;;;;;15.30;7.75;;;640.00;1561.60;;;;;;4835319;29;20049;-76
2021/08/14 00:33:34;;;;;;;14.25;8.55;;;640.00;1561.60;;;;;;4836494;29;20022;-74
2021/08/14 00:36:03;;;;;;;12.90;7.65;;;640.00;1561.60;;;;;;4833855;29;20406;-72
2021/08/14 00:38:31;;;;;;;15.18;8.05;;;615.30;1587.20;;;;;;4834487;29;20022;-71
2021/08/14 00:40:56;;;;;;;15.07;8.43;;;615.30;1587.20;;;;;;4834871;29;20366;-77
2021/08/14 00:43:31;;;;;;;20.15;7.90;;;615.30;1587.20;;;;;;4835703;29;20049;-77
2021/08/14 00:46:00;;;;;;;11.38;7.20;;;615.20;1587.20;;;;;;4834006;29;20061;-77
2021/08/14 00:48:35;;;;;;;10.02;7.07;;;615.20;1587.20;;;;;;4832752;29;20034;-77
2021/08/14 00:51:03;;;;;;;12.50;7.18;;;615.20;1612.80;;;;;;4832936;29;20053;-72
2021/08/14 00:53:31;;;;;;;10.20;6.78;;;615.10;1612.80;;;;;;4834656;29;20374;-76
2021/08/14 00:55:59;;;;;;;12.00;7.32;;;615.00;1612.80;;;;;;4834176;29;20109;-72
2021/08/14 00:58:31;;;;;;;9.48;7.00;;;615.00;1612.80;;;;;;4816826;29;20058;-78
2021/08/14 01:01:06;;;;;;;18.92;6.85;;;615.00;1612.80;;;;;;4835147;29;20448;-77
2021/08/14 01:03:38;;;;;;;9.20;6.90;;;615.00;1638.40;;;;;;4834851;29;20065;-73
2021/08/14 01:06:04;;;;;;;11.10;6.93;;;614.90;1638.40;;;;;;4828278;29;20026;-75
2021/08/14 01:08:32;;;;;;;14.80;6.68;;;614.90;1638.40;;;;;;4840097;29;20034;-77
2021/08/14 01:10:59;;;;;;;12.65;7.30;;;614.90;1664.00;;;;;;4842860;29;20034;-76
2021/08/14 01:13:25;;;;;;;13.15;7.07;;;614.90;1638.40;;;;;;4840226;29;20029;-76
2021/08/14 01:15:55;;;;;;;10.68;6.93;;;614.90;1664.00;;;;;;4842460;29;20041;-76
2021/08/14 01:18:22;;;;;;;15.52;7.22;;;614.80;1664.00;;;;;;4836900;29;20397;-71
2021/08/14 01:20:48;;;;;;;27.90;7.60;;;614.80;1664.00;;;;;;4833171;29;20025;-75
2021/08/14 01:23:16;;;;;;;12.50;7.10;;;614.80;1664.00;;;;;;4834801;29;20035;-77
2021/08/14 01:25:45;;;;;;;13.38;7.40;;;614.80;1664.00;;;;;;4839611;29;20434;-76
2021/08/14 01:28:14;;;;;;;11.80;7.50;;;614.80;1664.00;;;;;;4834233;29;20045;-71
2021/08/14 01:30:41;;;;;;;11.75;7.35;;;614.80;1664.00;;;;;;4816297;29;20039;-71
2021/08/14 01:33:12;;;;;;;12.05;6.95;;;614.80;1664.00;;;;;;4815791;29;20437;-75
2021/08/14 01:35:42;;;;;;;12.13;7.45;;;614.70;1664.00;;;;;;4832843;29;20381;-72
2021/08/14 01:38:09;;;;;;;12.98;7.00;;;614.70;1664.00;;;;;;4832072;29;20037;-76
2021/08/14 01:40:35;;;;;;;12.52;7.05;;;614.70;1664.00;;;;;;4832369;29;20022;-73
2021/08/14 01:43:01;;;;;;;11.77;7.10;;;614.70;1689.60;;;;;;4832905;29;20042;-76
2021/08/14 01:45:27;;;;;;;11.98;7.28;;;614.70;1664.00;;;;;;4833311;29;20385;-76
2021/08/14 01:47:56;;;;;;;11.95;8.07;;;614.70;1664.00;;;;;;4852054;29;20045;-76
2021/08/14 01:50:21;;;;;;;14.82;6.93;;;614.60;1689.60;;;;;;4851427;29;20057;-75
2021/08/14 01:52:52;;;;;;;11.90;7.18;;;614.60;1689.60;;;;;;4850639;29;20105;-77
2021/08/14 01:55:19;;;;;;;10.50;7.82;;;614.60;1689.60;;;;;;4850108;29;20421;-77
2021/08/14 01:57:45;;;;;;;14.82;7.57;;;614.50;1689.60;;;;;;4849545;29;20472;-71
2021/08/14 02:00:12;;;;;;;13.13;7.43;;;614.50;1689.60;;;;;;4851713;29;20053;-71
2021/08/14 02:02:39;;;;;;;10.43;7.38;;;614.50;1689.60;;;;;;4849961;29;20120;-74
2021/08/14 02:05:06;;;;;;;10.98;7.22;;;614.50;1689.60;;;;;;4851476;29;20033;-71
2021/08/14 02:07:32;;;;;;;16.00;6.88;;;614.40;1689.60;;;;;;4851759;29;20026;-73
2021/08/14 02:09:58;;;;;;;14.30;6.68;;;614.50;1689.60;;;;;;4850269;29;20057;-72
2021/08/14 02:12:24;;;;;;;11.88;6.38;;;614.50;1689.60;;;;;;4855332;29;20074;-73
2021/08/14 02:14:52;;;;;;;8.90;6.65;;;614.40;1689.60;;;;;;4849606;29;20022;-77
2021/08/14 02:17:18;;;;;;;8.68;6.65;;;614.50;1689.60;;;;;;4851774;29;20022;-74
2021/08/14 02:19:46;;;;;;;14.50;6.78;;;614.50;1689.60;;;;;;4833346;29;20034;-74
2021/08/14 02:22:12;;;;;;;15.27;8.13;;;614.50;1689.60;;;;;;4834085;29;20037;-71
2021/08/14 02:24:40;;;;;;;13.10;7.10;;;614.40;1689.60;;;;;;4851352;29;20070;-72
2021/08/14 02:27:06;;;;;;;13.48;7.60;;;614.50;1689.60;;;;;;4834994;29;20034;-72
2021/08/14 02:29:33;;;;;;;11.32;8.20;;;614.50;1689.60;;;;;;4837950;29;20037;-72
2021/08/14 02:32:00;;;;;;;13.85;7.82;;;614.50;1689.60;;;;;;4855471;29;20037;-72
2021/08/14 02:34:27;;;;;;;16.40;8.35;;;614.40;1689.60;;;;;;4862544;29;20041;-72
2021/08/14 02:36:56;;;;;;;12.43;7.93;;;614.40;1715.20;;;;;;4846097;29;20029;-77
2021/08/14 02:39:27;;;;;;;19.17;8.77;;;614.40;1715.20;;;;;;4863451;29;20044;-74
2021/08/14 02:41:59;;;;;;;16.13;9.10;;;614.40;1715.20;;;;;;4863845;29;20413;-73
2021/08/14 02:44:30;;;;;;;15.00;9.45;;;589.70;1740.80;;;;;;4864133;29;20095;-72
2021/08/14 02:47:02;;;;;;;15.23;9.02;;;589.70;1740.80;;;;;;4863824;29;20053;-72
2021/08/14 02:49:33;;;;;;;18.98;8.55;;;589.70;1740.80;;;;;;4863718;29;20021;-72
2021/08/14 02:52:05;;;;;;;16.52;9.00;;;589.50;1740.80;;;;;;4864069;29;20026;-72
2021/08/14 02:54:39;;;;;;;17.02;8.63;;;589.50;1740.80;;;;;;4863757;29;20029;-72
2021/08/14 02:57:10;;;;;;;15.07;9.27;;;589.50;1766.40;;;;;;4864309;29;20081;-72
2021/08/14 02:59:42;;;;;;;14.35;8.70;;;589.50;1766.40;;;;;;4864052;29;20409;-72
2021/08/14 03:02:13;;;;;;;13.85;9.02;;;589.50;1766.40;;;;;;4863746;29;20045;-72
2021/08/14 03:04:45;;;;;;;23.40;9.75;;;589.50;1766.40;;;;;;4863605;29;20029;-72
2021/08/14 03:07:16;;;;;;;20.67;10.68;;;589.50;1766.40;;;;;;4863618;29;20030;-72
2021/08/14 03:09:48;;;;;;;16.90;9.13;;;589.50;1766.40;;;;;;4863189;29;20173;-72
2021/08/14 03:12:22;;;;;;;23.63;8.38;;;589.50;1766.40;;;;;;4863530;29;20029;-72
2021/08/14 03:14:50;;;;;;;;;;;589.50;1766.40;;;;;;4864015;29;20032;-72
2021/08/14 03:17:22;;;;;;;14.00;8.43;;;589.50;1766.40;;;;;;4863478;29;19957;-72
2021/08/14 03:19:53;;;;;;;15.85;7.90;;;589.40;1792.00;;;;;;4863956;29;20053;-72
2021/08/14 03:22:25;;;;;;;12.73;8.30;;;589.50;1792.00;;;;;;4863254;29;20061;-72
2021/08/14 03:24:59;;;;;;;11.55;8.30;;;589.40;1792.00;;;;;;4863262;29;20021;-72
2021/08/14 03:27:28;;;;;;;;;;;589.40;1792.00;;;;;;4863623;29;20033;-72
2021/08/14 03:29:59;;;;;;;16.67;8.55;;;589.40;1817.60;;;;;;4863200;29;19915;-72
2021/08/14 03:32:30;;;;;;;13.60;8.43;;;589.40;1817.60;;;;;;4863074;29;20025;-72
2021/08/14 03:35:02;;;;;;;15.35;8.57;;;589.30;1843.20;;;;;;4863134;29;20045;-72
2021/08/14 03:37:33;;;;;;;12.85;8.23;;;589.30;1843.20;;;;;;4862373;29;20033;-72
2021/08/14 03:40:05;;;;;;;18.98;8.20;;;589.30;1843.20;;;;;;4862831;29;20053;-72
2021/08/14 03:42:37;;;;;;;16.55;9.18;;;589.40;1843.20;;;;;;4863028;29;20037;-72
2021/08/14 03:45:09;;;;;;;13.10;8.02;;;589.40;1868.80;;;;;;4863519;29;20067;-72
2021/08/14 03:47:43;;;;;;;12.20;8.50;;;589.40;1843.20;;;;;;4862627;29;20059;-72
2021/08/14 03:50:15;;;;;;;20.02;8.88;;;589.40;1817.60;;;;;;4862858;29;20030;-72
2021/08/14 03:52:46;;;;;;;17.80;8.40;;;589.40;1843.20;;;;;;4862730;29;20033;-72
2021/08/14 03:55:18;;;;;;;14.00;8.48;;;589.40;1843.20;;;;;;4862611;29;20105;-72
2021/08/14 03:57:50;;;;;;;14.70;8.98;;;589.40;1817.60;;;;;;4846185;29;20043;-72
2021/08/14 04:00:21;;;;;;;14.05;9.30;;;589.40;1817.60;;;;;;4862655;29;20029;-72
2021/08/14 04:02:53;;;;;;;16.10;8.30;;;589.50;1817.60;;;;;;4862264;29;20041;-72
2021/08/14 04:05:24;;;;;;;19.77;8.85;;;589.50;1817.60;;;;;;4862643;29;20048;-72
2021/08/14 04:07:56;;;;;;;22.40;9.18;;;589.50;1817.60;;;;;;4862509;29;20147;-72
2021/08/14 04:10:27;;;;;;;13.68;8.73;;;589.50;1817.60;;;;;;4862501;29;20109;-72
2021/08/14 04:12:59;;;;;;;12.77;8.00;;;589.60;1817.60;;;;;;4862404;29;20033;-72
2021/08/14 04:15:31;;;;;;;20.17;8.35;;;589.60;1817.60;;;;;;4862487;29;20037;-72
2021/08/14 04:18:05;;;;;;;15.20;8.75;;;589.60;1817.60;;;;;;4862368;29;20500;-72
2021/08/14 04:20:39;;;;;;;16.90;9.38;;;589.60;1817.60;;;;;;4862385;29;20425;-72
2021/08/14 04:23:11;;;;;;;20.20;8.75;;;589.60;1817.60;;;;;;4862222;29;20057;-72
2021/08/14 04:25:45;;;;;;;11.98;8.00;;;589.70;1792.00;;;;;;4862128;29;20026;-72
2021/08/14 04:28:14;;;;;;;;;;;589.70;1792.00;;;;;;4862708;29;20404;-72
2021/08/14 04:30:45;;;;;;;16.73;8.88;;;589.70;1792.00;;;;;;4862236;29;19908;-73
2021/08/14 04:33:16;;;;;;;16.30;9.32;;;589.70;1766.40;;;;;;4862191;29;20025;-72
2021/08/14 04:35:49;;;;;;;21.63;9.50;;;614.40;1766.40;;;;;;4845098;29;20048;-72
2021/08/14 04:38:20;;;;;;;16.92;8.80;;;614.40;1740.80;;;;;;4861997;29;20026;-72
2021/08/14 04:40:52;;;;;;;20.13;12.18;;;614.40;1715.20;;;;;;4862055;29;20089;-72
2021/08/14 04:43:23;;;;;;;23.70;15.30;;;614.50;1715.20;;;;;;4861862;29;20498;-72
2021/08/14 04:45:57;;;;;;;21.00;15.25;;;614.60;1715.20;;;;;;4861647;29;20045;-72
2021/08/14 04:48:29;;;;;;;22.25;13.90;;;614.60;1689.60;;;;;;4861934;29;20113;-72
2021/08/14 04:51:00;;;;;;;21.50;13.18;;;614.60;1715.20;;;;;;4861895;29;20409;-72
2021/08/14 04:53:32;;;;;;;22.13;12.65;;;614.70;1689.60;;;;;;4861644;29;20026;-72
2021/08/14 04:56:03;;;;;;;19.27;12.43;;;614.70;1689.60;;;;;;4861692;29;20183;-72
2021/08/14 04:58:35;;;;;;;19.60;12.15;;;614.70;1689.60;;;;;;4861727;29;20045;-72
2021/08/14 05:01:09;;;;;;;18.27;11.02;;;614.70;1689.60;;;;;;4861510;29;20213;-72
2021/08/14 05:03:38;;;;;;;;;;;614.70;1689.60;;;;;;4862142;29;20038;-72
2021/08/14 05:06:10;;;;;;;22.17;12.35;;;614.70;1689.60;;;;;;4844757;29;19908;-72
2021/08/14 05:08:42;;;;;;;17.00;11.25;;;614.80;1689.60;;;;;;4844530;29;20037;-72
2021/08/14 05:11:14;;;;;;;22.25;11.10;;;614.80;1689.60;;;;;;4861717;29;20380;-72
2021/08/14 05:13:45;;;;;;;20.58;10.93;;;614.80;1689.60;;;;;;4861614;29;20054;-72
2021/08/14 05:16:17;;;;;;;18.42;11.43;;;614.90;1689.60;;;;;;4860952;29;20025;-72
2021/08/14 05:18:48;;;;;;;24.25;12.25;;;614.90;1689.60;;;;;;4844943;29;20037;-73
2021/08/14 05:21:20;;;;;;;17.02;10.48;;;614.90;1689.60;;;;;;4861367;29;20053;-72
2021/08/14 05:23:52;;;;;;;19.10;11.05;;;614.90;1689.60;;;;;;4861213;29;20489;-72
2021/08/14 05:26:23;;;;;;;19.42;11.50;;;615.00;1664.00;;;;;;4844503;29;20041;-72
2021/08/14 05:28:55;;;;;;;19.40;12.82;;;615.00;1638.40;;;;;;4861232;29;20033;-72
2021/08/14 05:31:27;;;;;;;16.73;12.38;;;615.00;1638.40;;;;;;4861413;29;20054;-72
2021/08/14 05:34:02;;;;;;;31.63;12.63;;;615.10;1612.80;;;;;;4861405;29;20025;-72
2021/08/14 05:36:34;;;;;;;22.13;12.10;;;615.10;1612.80;;;;;;4861363;29;20057;-72
2021/08/14 05:39:06;;;;;;;23.35;11.30;;;615.10;1612.80;;;;;;4861379;29;20452;-72
2021/08/14 05:41:40;;;;;;;20.23;9.88;;;615.20;1587.20;;;;;;4861425;29;20029;-72
2021/08/14 05:44:11;;;;;;;17.83;10.20;;;615.20;1587.20;;;;;;4861062;29;20048;-72
2021/08/14 05:46:43;;;;;;;14.80;10.63;;;615.20;1587.20;;;;;;4860969;29;20056;-72
2021/08/14 05:49:14;;;;;;;15.70;10.07;;;615.30;1612.80;;;;;;4861225;29;20045;-72
2021/08/14 05:51:46;;;;;;;19.25;11.20;;;615.30;1612.80;;;;;;4861143;29;20567;-72
2021/08/14 05:54:19;;;;;;;19.13;10.25;;;640.00;1612.80;;;;;;4861236;29;20037;-72
2021/08/14 05:56:51;;;;;;;20.77;11.13;;;640.10;1587.20;;;;;;4861462;29;20026;-72
2021/08/14 05:59:22;;;;;;;18.38;10.70;;;640.10;1587.20;;;;;;4861160;29;20068;-72
2021/08/14 06:01:48;;;;;;;20.77;10.27;;;640.20;1561.60;;;;;;4863254;29;20041;-71
2021/08/14 06:04:19;;;;;;;18.02;9.50;;;640.30;1561.60;;;;;;4864503;29;20029;-72
2021/08/14 06:06:45;;;;;;;15.57;9.18;;;640.40;1561.60;;;;;;4847708;29;20030;-73
2021/08/14 06:09:12;;;;;;;13.23;8.15;;;640.60;1561.60;;;;;;4864332;29;20479;-73
2021/08/14 06:11:40;;;;;;;14.02;7.90;;;640.60;1536.00;;;;;;4864363;29;20077;-71
2021/08/14 06:14:07;;;;;;;18.75;8.10;;;640.70;1536.00;;;;;;4864580;29;20110;-73
2021/08/14 06:16:39;;;;;;;16.83;7.95;;;640.70;1510.40;;;;;;4864278;29;20062;-72
2021/08/14 06:19:07;;;;;;;9.60;6.47;;;640.80;1484.80;;;;;;4864215;29;20029;-71
2021/08/14 06:21:38;;;;;;;16.33;7.72;;;640.80;1459.20;;;;;;4847016;29;20125;-72
2021/08/14 06:24:12;;;;;;;11.50;6.82;;;640.90;1459.20;;;;;;4864325;29;20039;-72
2021/08/14 06:26:39;;;;;;;12.93;6.45;;;665.60;1459.20;;;;;;4864384;29;20112;-73
2021/08/14 06:29:10;;;;;;;17.08;6.90;;;665.70;1459.20;;;;;;4864348;29;20032;-72
2021/08/14 06:31:42;;;;;;;12.85;6.45;;;665.90;1433.60;;;;;;4864393;29;20025;-72
2021/08/14 06:34:14;;;;;;;16.38;6.43;;;666.00;1433.60;;;;;;4864542;29;20077;-72
2021/08/14 06:36:45;;;;;;;12.23;6.28;;;666.10;1408.00;;;;;;4864096;29;20025;-72
2021/08/14 06:39:17;;;;;;;13.68;6.22;;;666.30;1408.00;;;;;;4864056;29;20064;-72
2021/08/14 06:41:48;;;;;;;16.05;6.80;;;666.50;1408.00;;;;;;4864105;29;20056;-72
2021/08/14 06:44:20;;;;;;;12.02;5.80;;;691.40;1356.80;;;;;;4864077;29;20030;-72
2021/08/14 06:46:51;;;;;;;8.82;6.10;;;691.60;1408.00;;;;;;4863588;29;20447;-72
2021/08/14 06:49:23;;;;;;;12.77;6.05;;;691.90;1356.80;;;;;;4864044;29;20026;-72
2021/08/14 06:51:54;;;;;;;6.65;5.47;;;716.90;1356.80;;;;;;4864019;29;20026;-72
2021/08/14 06:54:26;;;;;;;9.40;6.60;;;717.10;1331.20;;;;;;4863884;29;20035;-72
2021/08/14 06:56:57;;;;;;;11.10;5.97;;;717.40;1305.60;;;;;;4847114;29;20113;-72
2021/08/14 06:59:28;;;;;;;10.07;6.20;;;742.40;1305.60;;;;;;4863863;29;20519;-72
2021/08/14 07:02:00;;;;;;;9.18;6.22;;;742.60;1305.60;;;;;;4863569;29;20041;-72
2021/08/14 07:04:31;;;;;;;9.82;6.10;;;742.80;1280.00;;;;;;4863575;29;20094;-72
2021/08/14 07:07:03;;;;;;;10.32;5.57;;;743.10;1254.40;;;;;;4863567;29;20121;-72
2021/08/14 07:09:41;;;;;;;5.82;5.22;;;768.00;1254.40;;;;;;4863503;29;20021;-72
2021/08/14 07:12:13;;;;;;;8.38;4.97;;;768.40;1228.80;;;;;;4863040;29;20437;-72
2021/08/14 07:14:45;;;;;;;8.18;4.90;;;768.60;1203.20;;;;;;4863192;29;20056;-72
2021/08/14 07:17:16;;;;;;;7.00;4.63;;;768.90;1126.40;;;;;;4863288;29;20437;-72
2021/08/14 07:19:48;;;;;;;8.13;4.55;;;793.70;1152.00;;;;;;4863383;29;20053;-72
2021/08/14 07:22:19;;;;;;;9.07;4.85;;;794.00;1075.20;;;;;;4863217;29;20045;-72
2021/08/14 07:24:51;;;;;;;6.55;5.10;;;794.30;1049.60;;;;;;4863383;29;20090;-72
2021/08/14 07:27:24;;;;;;;11.63;4.88;;;794.50;1024.00;;;;;;4863481;29;20029;-72
2021/08/14 07:29:55;;;;;;;15.50;4.97;;;819.30;1049.60;;;;;;4863302;29;20029;-72
2021/08/14 07:32:27;;;;;;;17.45;5.30;;;819.60;1024.00;;;;;;4862860;29;20065;-72
2021/08/14 07:34:58;;;;;;;13.60;5.38;;;819.80;1024.00;;;;;;4863217;29;20124;-72
2021/08/14 07:37:29;;;;;;;10.63;5.10;;;820.10;1024.00;;;;;;4863041;29;20042;-72
2021/08/14 07:40:04;;;;;;;10.77;5.25;;;845.00;1024.00;;;;;;4862995;29;20029;-73
2021/08/14 07:42:35;;;;;;;9.00;5.65;;;845.30;1024.00;;;;;;4862889;29;20042;-72
2021/08/14 07:45:08;;;;;;;15.48;4.85;;;845.40;1024.00;;;;;;4862807;29;20116;-73
2021/08/14 07:47:40;;;;;;;31.73;6.75;;;845.60;998.40;;;;;;4845988;29;20061;-72
2021/08/14 07:50:15;;;;;;;20.83;5.70;;;870.50;998.40;;;;;;4846137;29;20388;-72
2021/08/14 07:52:47;;;;;;;11.07;5.15;;;870.60;972.80;;;;;;4862659;29;20057;-73
2021/08/14 07:55:16;;;;;;;11.05;5.07;;;870.80;947.20;;;;;;4862538;29;20109;-71
2021/08/14 07:57:46;;;;;;;11.65;4.72;;;870.90;947.20;;;;;;4854697;29;20045;-71
2021/08/14 08:00:15;;;;;;;11.40;4.15;;;871.10;947.20;;;;;;4852793;29;20037;-74
2021/08/14 08:02:44;;;;;;;9.93;4.32;;;871.30;921.60;;;;;;4850452;29;20055;-72
2021/08/14 08:05:15;;;;;;;19.83;5.10;;;896.00;921.60;;;;;;4855164;29;20384;-73
2021/08/14 08:07:48;;;;;;;29.88;5.60;;;896.20;921.60;;;;;;4862511;29;20041;-72
2021/08/14 08:10:21;;;;;;;16.42;5.30;;;896.50;870.40;;;;;;4862530;29;20405;-72
2021/08/14 08:12:52;;;;;;;12.23;4.53;;;896.60;870.40;;;;;;4862253;29;20041;-72
2021/08/14 08:15:24;;;;;;;8.80;4.35;;;896.80;844.80;;;;;;4862509;29;20033;-72
2021/08/14 08:17:57;;;;;;;19.40;5.40;;;921.60;844.80;;;;;;4845740;29;20033;-72
2021/08/14 08:20:28;;;;;;;13.02;4.57;;;921.70;844.80;;;;;;4862279;29;20388;-73
2021/08/14 08:22:59;;;;;;;7.47;4.22;;;921.90;844.80;;;;;;4861638;29;20086;-73
2021/08/14 08:25:31;;;;;;;13.18;4.50;;;922.10;819.20;;;;;;4861752;29;20033;-72
2021/08/14 08:28:05;;;;;;;10.93;4.38;;;922.30;793.60;;;;;;4862052;29;20460;-72
2021/08/14 08:30:37;;;;;;;23.20;5.22;;;922.50;793.60;;;;;;4861948;29;20025;-72
2021/08/14 08:33:08;;;;;;;97.07;11.50;;;947.20;793.60;;;;;;4861801;29;20388;-75
2021/08/14 08:35:40;;;;;;;34.22;7.80;;;947.30;768.00;;;;;;4862059;29;20109;-76
2021/08/14 08:38:12;;;;;;;27.17;8.10;;;947.50;742.40;;;;;;4861934;29;20067;-77
2021/08/14 08:40:47;;;;;;;42.67;11.13;;;947.80;691.20;;;;;;4861982;29;20085;-78
2021/08/14 08:43:18;;;;;;;23.33;8.93;;;948.00;716.80;;;;;;4862032;29;20049;-77
2021/08/14 08:45:51;;;;;;;60.92;8.15;;;947.90;716.80;;;;;;4861613;29;20045;-73
2021/08/14 08:48:21;;;;;;;31.67;7.03;;;947.90;742.40;;;;;;4862231;29;20049;-71
2021/08/14 08:50:53;;;;;;;19.10;9.70;;;947.90;742.40;;;;;;4861967;29;20022;-71
2021/08/14 08:53:25;;;;;;;13.95;7.22;;;948.10;716.80;;;;;;4861929;29;20026;-71
2021/08/14 08:55:56;;;;;;;13.18;6.30;;;948.10;716.80;;;;;;4861874;29;20025;-71
2021/08/14 08:58:27;;;;;;;15.45;12.45;;;972.80;716.80;;;;;;4861499;29;20358;-71
2021/08/14 09:00:54;;;;;;;12.80;7.18;;;972.90;716.80;;;;;;4861826;29;20104;-70
2021/08/14 09:03:28;;;;;;;10.07;6.22;;;973.00;716.80;;;;;;4861346;29;20146;-71
2021/08/14 09:05:57;;;;;;;19.00;11.32;;;973.30;716.80;;;;;;4861596;29;20037;-71
2021/08/14 09:08:29;;;;;;;9.73;6.05;;;973.30;716.80;;;;;;4861539;29;20425;-71
2021/08/14 09:11:10;;;;;;;15.20;8.57;;;973.40;691.20;;;;;;4861643;29;20096;-71
2021/08/14 09:13:59;;;;;;;25.42;9.40;;;973.50;665.60;;;;;;4861588;29;20038;-71
2021/08/14 09:16:27;;;;;;;59.30;9.80;;;973.40;691.20;;;;;;4861423;29;20085;-71
2021/08/14 09:19:01;;;;;;;14.95;4.90;;;973.50;691.20;;;;;;4861500;29;20437;-71
2021/08/14 09:21:46;;;;;;;22.55;13.52;;;973.70;640.00;;;;;;4861804;29;20022;-71
2021/08/14 09:24:32;;;;;;;16.25;7.72;;;998.40;691.20;;;;;;4861398;29;20053;-71
2021/08/14 09:27:05;;;;;;;8.80;5.38;;;998.60;665.60;;;;;;4861411;29;20029;-71
2021/08/14 09:29:39;;;;;;;11.02;6.00;;;998.60;665.60;;;;;;4861730;29;20487;-71
2021/08/14 09:32:14;;;;;;;11.27;4.63;;;998.80;665.60;;;;;;4860662;29;20029;-71
2021/08/14 09:34:47;;;;;;;10.23;4.70;;;998.80;665.60;;;;;;4849586;29;20116;-71
2021/08/14 09:37:19;;;;;;;12.70;7.03;;;998.80;665.60;;;;;;4844991;29;20078;-71
2021/08/14 09:40:01;;;;;;;18.08;11.25;;;998.90;665.60;;;;;;4846736;29;20038;-71
2021/08/14 09:42:47;;;;;;;11.82;8.85;;;998.90;640.00;;;;;;4846164;29;20541;-71
2021/08/14 09:45:18;;;;;;;20.40;9.00;;;998.90;640.00;;;;;;4857185;29;20097;-71
2021/08/14 09:47:51;;;;;;;11.25;6.40;;;999.00;640.00;;;;;;4850453;29;20149;-72
2021/08/14 09:50:35;;;;;;;26.00;6.43;;;999.00;640.00;;;;;;4846483;29;20082;-73
2021/08/14 09:53:12;;;;;;;;;;;999.30;640.00;;;;;;4846958;29;20033;-73
2021/08/14 09:55:45;;;;;;;12.00;4.63;;;999.30;640.00;;;;;;4853244;29;20371;-71
2021/08/14 09:58:20;;;;;;;12.82;4.70;;;1024.00;640.00;;;;;;4853173;29;20110;-71
2021/08/14 10:00:54;;;;;;;9.27;4.55;;;1024.00;640.00;;;;;;4854109;29;20034;-72
2021/08/14 10:03:24;;;;;;;9.23;3.90;;;1024.10;614.40;;;;;;4853334;29;20451;-72
2021/08/14 10:05:51;;;;;;;27.40;5.82;;;1024.10;614.40;;;;;;4853287;29;20036;-72
2021/08/14 10:08:18;;;;;;;14.02;5.25;;;1024.10;640.00;;;;;;4854830;29;20507;-71
2021/08/14 10:10:46;;;;;;;13.75;5.15;;;1024.20;614.40;;;;;;4853623;29;20029;-72
2021/08/14 10:13:14;;;;;;;6.40;4.32;;;1024.30;614.40;;;;;;4853240;29;20179;-71
2021/08/14 10:15:40;;;;;;;8.70;4.40;;;1024.30;614.40;;;;;;4853127;29;20472;-72
2021/08/14 10:18:11;;;;;;;6.22;3.70;;;1024.30;614.40;;;;;;4853384;29;20038;-71
2021/08/14 10:20:40;;;;;;;6.82;3.88;;;1024.40;588.80;;;;;;4854662;29;20037;-72
2021/08/14 10:23:12;;;;;;;7.65;3.95;;;1024.40;588.80;;;;;;4853783;29;20038;-72
2021/08/14 10:25:43;;;;;;;6.53;4.38;;;1024.40;588.80;;;;;;4854859;29;20029;-71
2021/08/14 10:28:14;;;;;;;10.40;3.70;;;1024.50;588.80;;;;;;4854029;29;20040;-71
2021/08/14 10:30:46;;;;;;;7.78;3.95;;;1024.60;588.80;;;;;;4853266;29;20030;-71
2021/08/14 10:33:36;;;;;;;6.72;4.25;;;1024.50;588.80;;;;;;4852350;29;20034;-71
2021/08/14 10:36:22;;;;;;;6.22;3.53;;;1024.60;588.80;;;;;;4851991;29;20512;-72
2021/08/14 10:38:52;;;;;;;6.10;3.65;;;1024.60;588.80;;;;;;4853752;29;20034;-72
2021/08/14 10:41:35;;;;;;;6.15;3.80;;;1024.60;588.80;;;;;;4852339;29;20030;-71
2021/08/14 10:44:06;;;;;;;5.80;4.20;;;1024.60;588.80;;;;;;4852836;29;20048;-71
2021/08/14 10:46:51;;;;;;;6.63;3.70;;;1024.60;588.80;;;;;;4851828;29;20140;-72
2021/08/14 10:49:35;;;;;;;7.88;3.92;;;1024.80;563.20;;;;;;4854235;29;20385;-72
2021/08/14 10:52:02;;;;;;;15.25;4.50;;;1024.80;588.80;;;;;;4852776;29;20086;-72
2021/08/14 10:54:34;;;;;;;7.53;4.05;;;1024.80;588.80;;;;;;4852605;29;20492;-72
2021/08/14 10:57:11;;;;;;;7.32;4.38;;;1024.80;563.20;;;;;;4835088;29;20102;-71
2021/08/14 10:59:37;;;;;;;7.38;4.28;;;1024.80;563.20;;;;;;4852550;29;20129;-71
2021/08/14 11:02:07;;;;;;;7.78;3.80;;;1049.60;614.40;;;;;;4854497;29;20492;-72
2021/08/14 11:04:42;;;;;;;6.22;3.78;;;1049.60;614.40;;;;;;4853977;29;20029;-72
2021/08/14 11:07:20;;;;;;;9.38;4.05;;;1049.60;614.40;;;;;;4857464;29;20388;-71
2021/08/14 11:09:55;;;;;;;5.97;3.88;;;1049.70;614.40;;;;;;4853024;29;20022;-72
2021/08/14 11:12:47;;;;;;;11.40;3.78;;;1049.60;614.40;;;;;;4852665;29;20038;-72
2021/08/14 11:15:25;;;;;;;9.40;4.80;;;1049.70;614.40;;;;;;4859561;29;20089;-71
2021/08/14 11:17:51;;;;;;;12.88;4.38;;;1049.80;614.40;;;;;;4852898;29;20092;-70
2021/08/14 11:20:23;;;;;;;10.13;4.07;;;1049.70;614.40;;;;;;4853206;29;20025;-72
2021/08/14 11:22:51;;;;;;;7.97;4.55;;;1049.70;588.80;;;;;;4851478;29;20086;-72
2021/08/14 11:25:23;;;;;;;6.55;4.55;;;1049.70;614.40;;;;;;4852091;29;20045;-73
2021/08/14 11:28:19;;;;;;;6.80;4.20;;;1049.80;614.40;;;;;;4836466;29;20033;-72
2021/08/14 11:30:55;;;;;;;4.70;4.10;;;1049.80;588.80;;;;;;4851263;29;20029;-74
2021/08/14 11:33:25;;;;;;;4.88;3.80;;;1049.80;588.80;;;;;;4852154;29;20026;-75
2021/08/14 11:36:05;;;;;;;8.35;4.30;;;1049.80;588.80;;;;;;4840430;29;20040;-74
2021/08/14 11:38:39;;;;;;;4.68;4.18;;;1049.80;614.40;;;;;;4862707;29;20030;-71
2021/08/14 11:41:18;;;;;;;5.82;3.80;;;1049.80;614.40;;;;;;4854504;29;20045;-71
2021/08/14 11:43:45;;;;;;;5.32;4.10;;;1049.70;614.40;;;;;;4856567;29;20071;-75
2021/08/14 11:46:12;;;;;;;6.90;4.25;;;1049.80;588.80;;;;;;4851063;29;20496;-72
2021/08/14 11:48:51;;;;;;;9.35;4.47;;;1049.80;588.80;;;;;;4851671;29;20116;-75
2021/08/14 11:51:20;;;;;;;8.00;3.90;;;1049.80;588.80;;;;;;4852412;29;20033;-72
2021/08/14 11:54:01;;;;;;;6.97;4.35;;;1049.80;614.40;;;;;;4860093;29;20029;-74
2021/08/14 11:56:33;;;;;;;7.72;4.32;;;1049.80;614.40;;;;;;4862772;29;20034;-71
2021/08/14 11:58:59;;;;;;;5.50;4.43;;;1049.90;614.40;;;;;;4862029;29;20101;-74
2021/08/14 12:01:29;;;;;;;6.45;4.18;;;1049.90;614.40;;;;;;4862883;29;20036;-75
2021/08/14 12:04:02;;;;;;;5.35;4.15;;;1049.80;614.40;;;;;;4862623;29;20500;-72
2021/08/14 12:06:34;;;;;;;7.38;4.18;;;1049.80;614.40;;;;;;4862507;29;20030;-71
2021/08/14 12:09:03;;;;;;;6.45;4.35;;;1049.80;614.40;;;;;;4845773;29;20083;-71
2021/08/14 12:11:35;;;;;;;9.32;4.15;;;1049.70;614.40;;;;;;4862601;29;20053;-73
2021/08/14 12:14:22;;;;;;;6.25;4.43;;;1049.70;614.40;;;;;;4859588;29;20116;-71
2021/08/14 12:16:50;;;;;;;6.43;3.95;;;1049.60;614.40;;;;;;4853177;29;20033;-74
2021/08/14 12:19:20;;;;;;;11.15;4.55;;;1049.60;614.40;;;;;;4852065;29;20029;-73
2021/08/14 12:21:49;;;;;;;5.68;3.90;;;1024.80;588.80;;;;;;4850454;29;20033;-72
2021/08/14 12:24:25;;;;;;;7.15;4.00;;;1049.60;588.80;;;;;;4847956;29;20037;-75
2021/08/14 12:26:55;;;;;;;6.32;4.63;;;1049.60;614.40;;;;;;4853645;29;20025;-75
2021/08/14 12:29:23;;;;;;;10.05;4.15;;;1049.60;614.40;;;;;;4855879;29;20424;-73
2021/08/14 12:31:54;;;;;;;9.85;4.18;;;1049.60;614.40;;;;;;4854730;29;20085;-72
2021/08/14 12:34:34;;;;;;;8.20;3.72;;;1049.60;614.40;;;;;;4852827;29;20028;-73